createdAt,value
2019-02-16T00:00:18.160Z,3.37
2019-02-16T00:01:18.061Z,3.41
2019-02-16T00:02:17.998Z,3.44
2019-02-16T00:03:17.895Z,3.37
2019-02-16T00:04:17.798Z,3.42
2019-02-16T00:05:17.714Z,3.42
2019-02-16T00:06:17.631Z,3.44
2019-02-16T00:07:17.579Z,3.45
2019-02-16T00:08:17.453Z,3.26
2019-02-16T00:09:17.368Z,3.31
2019-02-16T00:10:17.279Z,3.41
2019-02-16T00:11:17.193Z,3.29
2019-02-16T00:12:17.104Z,3.34
2019-02-16T00:13:17.019Z,3.32
2019-02-16T00:14:16.938Z,3.36
2019-02-16T00:15:16.845Z,3.28
2019-02-16T00:16:16.758Z,3.31
2019-02-16T00:17:16.672Z,3.34
2019-02-16T00:18:16.588Z,3.26
2019-02-16T00:19:16.516Z,3.25
2019-02-16T00:20:16.413Z,3.22
2019-02-16T00:21:16.324Z,3.25
2019-02-16T00:22:16.238Z,3.26
2019-02-16T00:23:16.200Z,3.16
2019-02-16T00:24:16.062Z,3.13
2019-02-16T00:25:15.980Z,3.14
2019-02-16T00:26:23.593Z,3.14
2019-02-16T00:28:20.186Z,3.26
2019-02-16T00:29:20.081Z,3.22
2019-02-16T00:30:19.994Z,3.14
2019-02-16T00:31:19.905Z,3.18
2019-02-16T00:32:19.824Z,3.14
2019-02-16T00:33:19.741Z,3.22
2019-02-16T00:34:19.646Z,3.10
2019-02-16T00:35:19.558Z,3.08
2019-02-16T00:36:19.483Z,3.10
2019-02-16T00:37:19.384Z,3.18
2019-02-16T00:38:19.292Z,3.13
2019-02-16T00:39:19.209Z,3.05
2019-02-16T00:40:19.122Z,3.14
2019-02-16T00:41:19.035Z,3.14
2019-02-16T00:42:18.943Z,3.16
2019-02-16T00:43:18.868Z,3.16
2019-02-16T00:44:18.781Z,3.08
2019-02-16T00:45:18.701Z,3.13
2019-02-16T00:46:18.601Z,3.22
2019-02-16T00:47:18.521Z,3.08
2019-02-16T00:48:18.428Z,3.08
2019-02-16T00:49:18.340Z,3.16
2019-02-16T00:50:18.255Z,3.19
2019-02-16T00:51:18.166Z,3.10
2019-02-16T00:52:18.078Z,3.11
2019-02-16T00:53:17.991Z,3.08
2019-02-16T00:54:17.914Z,3.05
2019-02-16T00:55:17.819Z,3.07
2019-02-16T00:56:17.733Z,2.95
2019-02-16T00:57:17.643Z,3.03
2019-02-16T00:58:17.555Z,3.07
2019-02-16T00:59:17.464Z,3.04
2019-02-16T01:00:17.385Z,3.00
2019-02-16T01:01:17.296Z,3.03
2019-02-16T01:02:17.206Z,3.07
2019-02-16T01:03:17.120Z,3.00
2019-02-16T01:04:17.034Z,3.00
2019-02-16T01:05:16.949Z,3.05
2019-02-16T01:06:16.856Z,3.01
2019-02-16T01:07:16.783Z,3.01
2019-02-16T01:08:16.685Z,2.98
2019-02-16T01:09:16.598Z,2.93
2019-02-16T01:10:16.504Z,2.95
2019-02-16T01:11:16.422Z,3.00
2019-02-16T01:12:16.393Z,2.93
2019-02-16T01:13:16.248Z,2.98
2019-02-16T01:14:16.160Z,2.93
2019-02-16T01:15:16.072Z,2.97
2019-02-16T01:16:15.986Z,2.95
2019-02-16T01:17:15.899Z,2.97
2019-02-16T01:18:15.809Z,3.05
2019-02-16T01:19:15.723Z,3.03
2019-02-16T01:20:15.641Z,2.98
2019-02-16T01:21:22.482Z,2.97
2019-02-16T01:22:15.463Z,2.97
2019-02-16T01:23:15.375Z,2.97
2019-02-16T01:24:15.288Z,2.98
2019-02-16T01:25:15.229Z,3.00
2019-02-16T01:26:15.116Z,2.90
2019-02-16T01:27:15.028Z,2.92
2019-02-16T01:28:14.942Z,2.89
2019-02-16T01:29:14.856Z,2.93
2019-02-16T01:30:14.763Z,2.90
2019-02-16T01:31:14.679Z,2.98
2019-02-16T01:32:14.589Z,2.87
2019-02-16T01:33:14.503Z,2.93
2019-02-16T01:34:14.418Z,2.85
2019-02-16T01:35:14.327Z,2.85
2019-02-16T01:36:14.244Z,2.85
2019-02-16T01:37:14.155Z,2.80
2019-02-16T01:38:14.062Z,2.80
2019-02-16T01:39:13.978Z,2.82
2019-02-16T01:40:13.891Z,2.77
2019-02-16T01:41:13.806Z,2.74
2019-02-16T01:42:13.717Z,2.79
2019-02-16T01:43:13.642Z,2.86
2019-02-16T01:44:13.542Z,2.82
2019-02-16T01:45:13.455Z,2.77
2019-02-16T01:46:13.369Z,2.83
2019-02-16T01:47:13.280Z,2.72
2019-02-16T01:48:13.197Z,2.74
2019-02-16T01:49:13.110Z,2.74
2019-02-16T01:50:13.017Z,2.77
2019-02-16T01:51:12.948Z,2.75
2019-02-16T01:52:12.842Z,2.72
2019-02-16T01:53:12.756Z,2.74
2019-02-16T01:54:12.669Z,2.72
2019-02-16T01:55:12.579Z,2.68
2019-02-16T01:56:12.501Z,2.77
2019-02-16T01:57:12.400Z,2.77
2019-02-16T01:58:12.316Z,2.71
2019-02-16T01:59:12.230Z,2.74
2019-02-16T02:00:12.144Z,2.74
2019-02-16T02:01:12.053Z,2.74
2019-02-16T02:02:11.972Z,2.69
2019-02-16T02:03:11.883Z,2.72
2019-02-16T02:04:11.794Z,2.71
2019-02-16T02:05:11.704Z,2.67
2019-02-16T02:06:11.618Z,2.67
2019-02-16T02:07:11.534Z,2.64
2019-02-16T02:08:11.443Z,2.56
2019-02-16T02:09:12.280Z,2.62
2019-02-16T02:10:11.271Z,2.56
2019-02-16T02:11:11.181Z,2.54
2019-02-16T02:12:11.095Z,2.60
2019-02-16T02:13:11.006Z,2.56
2019-02-16T02:14:10.918Z,2.57
2019-02-16T02:15:10.833Z,2.56
2019-02-16T02:16:10.745Z,2.47
2019-02-16T02:17:10.657Z,2.44
2019-02-16T02:18:10.570Z,2.49
2019-02-16T02:19:10.482Z,2.38
2019-02-16T02:20:10.397Z,2.36
2019-02-16T02:21:10.312Z,2.38
2019-02-16T02:22:10.213Z,2.44
2019-02-16T02:23:10.129Z,2.50
2019-02-16T02:24:10.047Z,2.36
2019-02-16T02:25:09.957Z,2.36
2019-02-16T02:26:09.870Z,2.39
2019-02-16T02:27:09.784Z,2.31
2019-02-16T02:28:09.698Z,2.43
2019-02-16T02:29:09.609Z,2.39
2019-02-16T02:30:09.523Z,2.53
2019-02-16T02:31:09.435Z,2.39
2019-02-16T02:32:09.347Z,2.42
2019-02-16T02:33:09.260Z,2.38
2019-02-16T02:34:09.177Z,2.44
2019-02-16T02:35:09.080Z,2.43
2019-02-16T02:36:08.999Z,2.51
2019-02-16T02:37:08.912Z,2.50
2019-02-16T02:38:08.819Z,2.47
2019-02-16T02:39:08.741Z,2.42
2019-02-16T02:40:08.644Z,2.46
2019-02-16T02:41:08.548Z,2.39
2019-02-16T02:42:08.467Z,2.39
2019-02-16T02:43:08.385Z,2.35
2019-02-16T02:44:08.296Z,2.42
2019-02-16T02:45:08.209Z,2.43
2019-02-16T02:46:08.117Z,2.36
2019-02-16T02:47:08.030Z,2.46
2019-02-16T02:48:07.947Z,2.36
2019-02-16T02:49:07.854Z,2.43
2019-02-16T02:50:07.773Z,2.35
2019-02-16T02:51:07.685Z,2.43
2019-02-16T02:52:07.592Z,2.42
2019-02-16T02:53:07.504Z,2.42
2019-02-16T02:54:07.416Z,2.38
2019-02-16T02:55:07.341Z,2.35
2019-02-16T02:56:07.244Z,2.35
2019-02-16T02:57:07.156Z,2.26
2019-02-16T02:58:07.066Z,2.32
2019-02-16T02:59:06.978Z,2.31
2019-02-16T03:00:06.890Z,2.31
2019-02-16T03:01:06.800Z,2.28
2019-02-16T03:02:06.717Z,2.29
2019-02-16T03:03:06.625Z,2.32
2019-02-16T03:04:06.543Z,2.28
2019-02-16T03:05:06.452Z,2.31
2019-02-16T03:06:06.367Z,2.28
2019-02-16T03:07:06.276Z,2.24
2019-02-16T03:08:06.191Z,2.28
2019-02-16T03:09:06.100Z,2.31
2019-02-16T03:10:06.015Z,2.26
2019-02-16T03:11:05.927Z,2.28
2019-02-16T03:12:05.839Z,2.18
2019-02-16T03:13:05.757Z,2.26
2019-02-16T03:14:05.659Z,2.26
2019-02-16T03:15:05.575Z,2.22
2019-02-16T03:16:05.484Z,2.26
2019-02-16T03:17:05.405Z,2.26
2019-02-16T03:18:05.320Z,2.28
2019-02-16T03:19:05.219Z,2.28
2019-02-16T03:20:05.137Z,2.26
2019-02-16T03:21:05.044Z,2.26
2019-02-16T03:22:04.970Z,2.26
2019-02-16T03:23:04.874Z,2.26
2019-02-16T03:24:04.792Z,2.20
2019-02-16T03:25:04.705Z,2.22
2019-02-16T03:26:04.605Z,2.25
2019-02-16T03:27:04.528Z,2.24
2019-02-16T03:28:04.437Z,2.08
2019-02-16T03:29:04.348Z,2.24
2019-02-16T03:30:04.260Z,2.24
2019-02-16T03:31:04.172Z,2.11
2019-02-16T03:32:04.086Z,2.25
2019-02-16T03:33:03.997Z,2.20
2019-02-16T03:34:03.907Z,2.13
2019-02-16T03:35:03.820Z,2.08
2019-02-16T03:36:03.732Z,2.10
2019-02-16T03:37:03.645Z,2.07
2019-02-16T03:38:03.559Z,1.94
2019-02-16T03:39:03.465Z,1.92
2019-02-16T03:40:03.385Z,1.92
2019-02-16T03:41:03.296Z,1.91
2019-02-16T03:42:03.208Z,1.91
2019-02-16T03:43:03.116Z,1.92
2019-02-16T03:44:03.033Z,1.92
2019-02-16T03:45:02.943Z,1.99
2019-02-16T03:46:02.863Z,2.04
2019-02-16T03:47:02.766Z,1.95
2019-02-16T03:48:02.679Z,2.06
2019-02-16T03:49:02.602Z,2.02
2019-02-16T03:50:02.505Z,1.99
2019-02-16T03:51:02.423Z,1.94
2019-02-16T03:52:12.975Z,2.04
2019-02-16T03:53:02.240Z,1.95
2019-02-16T03:54:02.151Z,1.97
2019-02-16T03:55:02.065Z,1.97
2019-02-16T03:56:01.977Z,1.97
2019-02-16T03:57:01.920Z,1.95
2019-02-16T03:58:01.799Z,1.95
2019-02-16T03:59:01.715Z,1.92
2019-02-16T04:00:01.623Z,1.89
2019-02-16T04:01:01.535Z,1.74
2019-02-16T04:02:01.450Z,1.78
2019-02-16T04:03:01.361Z,1.71
2019-02-16T04:04:01.270Z,1.67
2019-02-16T04:05:01.183Z,1.70
2019-02-16T04:06:01.097Z,1.78
2019-02-16T04:07:01.008Z,1.77
2019-02-16T04:08:00.921Z,1.76
2019-02-16T04:09:00.831Z,1.73
2019-02-16T04:10:00.746Z,1.67
2019-02-16T04:11:00.655Z,1.67
2019-02-16T04:12:00.568Z,1.77
2019-02-16T04:13:00.486Z,1.78
2019-02-16T04:14:00.392Z,1.85
2019-02-16T04:15:00.324Z,1.76
2019-02-16T04:16:00.217Z,1.73
2019-02-16T04:17:00.131Z,1.84
2019-02-16T04:18:00.038Z,1.78
2019-02-16T04:18:59.947Z,1.77
2019-02-16T04:19:59.868Z,1.81
2019-02-16T04:20:59.776Z,1.87
2019-02-16T04:21:59.693Z,1.77
2019-02-16T04:22:59.596Z,1.84
2019-02-16T04:23:59.511Z,1.84
2019-02-16T04:24:59.426Z,1.85
2019-02-16T04:25:59.333Z,1.81
2019-02-16T04:26:59.245Z,1.85
2019-02-16T04:27:59.155Z,1.84
2019-02-16T04:28:59.068Z,1.85
2019-02-16T04:29:58.979Z,1.87
2019-02-16T04:30:58.893Z,1.78
2019-02-16T04:31:58.813Z,1.88
2019-02-16T04:32:58.718Z,1.87
2019-02-16T04:33:58.628Z,1.77
2019-02-16T04:34:58.540Z,1.77
2019-02-16T04:35:58.455Z,1.77
2019-02-16T04:36:58.365Z,1.80
2019-02-16T04:37:58.278Z,1.81
2019-02-16T04:38:58.189Z,1.84
2019-02-16T04:39:58.100Z,1.88
2019-02-16T04:40:58.015Z,1.89
2019-02-16T04:41:57.924Z,1.87
2019-02-16T04:42:57.846Z,1.80
2019-02-16T04:43:57.748Z,1.81
2019-02-16T04:44:57.661Z,1.78
2019-02-16T04:45:57.569Z,1.74
2019-02-16T04:46:57.482Z,1.71
2019-02-16T04:47:57.396Z,1.73
2019-02-16T04:48:57.308Z,1.59
2019-02-16T04:49:57.220Z,1.59
2019-02-16T04:50:57.132Z,1.52
2019-02-16T04:51:57.044Z,1.59
2019-02-16T04:52:56.960Z,1.53
2019-02-16T04:53:56.875Z,1.53
2019-02-16T04:54:56.773Z,1.48
2019-02-16T04:55:56.688Z,1.52
2019-02-16T04:56:56.599Z,1.59
2019-02-16T04:57:56.520Z,1.45
2019-02-16T04:58:56.425Z,1.49
2019-02-16T04:59:56.336Z,1.62
2019-02-16T05:00:56.274Z,1.55
2019-02-16T05:01:56.160Z,1.58
2019-02-16T05:02:56.071Z,1.56
2019-02-16T05:03:55.984Z,1.53
2019-02-16T05:04:55.896Z,1.52
2019-02-16T05:05:55.806Z,1.52
2019-02-16T05:06:55.718Z,1.56
2019-02-16T05:07:55.632Z,1.60
2019-02-16T05:08:55.542Z,1.63
2019-02-16T05:09:55.447Z,1.62
2019-02-16T05:10:55.356Z,1.66
2019-02-16T05:11:55.273Z,1.66
2019-02-16T05:12:55.189Z,1.59
2019-02-16T05:13:55.104Z,1.53
2019-02-16T05:14:55.010Z,1.53
2019-02-16T05:15:54.925Z,1.53
2019-02-16T05:16:54.834Z,1.53
2019-02-16T05:17:54.752Z,1.60
2019-02-16T05:18:54.709Z,1.56
2019-02-16T05:19:54.574Z,1.60
2019-02-16T05:20:54.479Z,1.60
2019-02-16T05:21:54.398Z,1.62
2019-02-16T05:22:54.305Z,1.58
2019-02-16T05:23:54.215Z,1.56
2019-02-16T05:24:54.130Z,1.56
2019-02-16T05:25:54.039Z,1.50
2019-02-16T05:26:53.950Z,1.56
2019-02-16T05:27:53.865Z,1.55
2019-02-16T05:28:53.775Z,1.56
2019-02-16T05:29:53.692Z,1.56
2019-02-16T05:30:53.599Z,1.55
2019-02-16T05:31:53.509Z,1.53
2019-02-16T05:32:53.418Z,1.48
2019-02-16T05:33:53.335Z,1.60
2019-02-16T05:34:53.246Z,1.50
2019-02-16T05:35:53.155Z,1.55
2019-02-16T05:36:53.083Z,1.56
2019-02-16T05:37:52.981Z,1.49
2019-02-16T05:38:52.892Z,1.52
2019-02-16T05:39:52.808Z,1.62
2019-02-16T05:40:52.714Z,1.45
2019-02-16T05:41:52.638Z,1.52
2019-02-16T05:42:52.537Z,1.59
2019-02-16T05:43:52.457Z,1.45
2019-02-16T05:44:52.363Z,1.49
2019-02-16T05:45:52.270Z,1.48
2019-02-16T05:46:52.183Z,1.42
2019-02-16T05:47:52.097Z,1.53
2019-02-16T05:48:52.011Z,1.49
2019-02-16T05:49:51.924Z,1.59
2019-02-16T05:50:51.833Z,1.59
2019-02-16T05:51:51.746Z,1.48
2019-02-16T05:52:54.445Z,1.50
2019-02-16T05:53:51.568Z,1.56
2019-02-16T05:54:51.476Z,1.56
2019-02-16T05:55:51.399Z,1.55
2019-02-16T05:56:51.297Z,1.50
2019-02-16T05:57:51.208Z,1.49
2019-02-16T05:58:51.124Z,1.55
2019-02-16T05:59:51.052Z,1.53
2019-02-16T06:00:50.946Z,1.60
2019-02-16T06:01:54.030Z,1.56
2019-02-16T06:02:50.769Z,1.49
2019-02-16T06:03:50.681Z,1.50
2019-02-16T06:04:50.589Z,1.53
2019-02-16T06:05:50.507Z,1.50
2019-02-16T06:06:50.419Z,1.42
2019-02-16T06:07:50.325Z,1.53
2019-02-16T06:08:50.239Z,1.48
2019-02-16T06:09:50.154Z,1.50
2019-02-16T06:10:50.062Z,1.49
2019-02-16T06:11:49.976Z,1.44
2019-02-16T06:12:49.893Z,1.40
2019-02-16T06:13:49.796Z,1.35
2019-02-16T06:14:49.710Z,1.40
2019-02-16T06:15:49.623Z,1.38
2019-02-16T06:16:49.531Z,1.35
2019-02-16T06:17:49.443Z,1.41
2019-02-16T06:18:49.355Z,1.38
2019-02-16T06:19:49.269Z,1.34
2019-02-16T06:20:49.179Z,1.35
2019-02-16T06:21:49.093Z,1.32
2019-02-16T06:22:49.004Z,1.38
2019-02-16T06:23:48.912Z,1.38
2019-02-16T06:24:48.828Z,1.35
2019-02-16T06:25:48.735Z,1.34
2019-02-16T06:28:20.646Z,1.40
2019-02-16T06:29:20.545Z,1.40
2019-02-16T06:31:24.370Z,1.41
2019-02-16T06:32:24.266Z,1.44
2019-02-16T06:34:28.070Z,1.37
2019-02-16T06:35:27.978Z,1.37
2019-02-16T06:37:31.790Z,1.38
2019-02-16T06:38:31.684Z,1.37
2019-02-16T06:40:35.493Z,1.24
2019-02-16T06:41:35.393Z,1.13
2019-02-16T06:43:39.668Z,1.24
2019-02-16T06:44:39.574Z,1.23
2019-02-16T06:46:43.390Z,1.24
2019-02-16T06:47:43.285Z,1.31
2019-02-16T06:49:47.096Z,1.45
2019-02-16T06:50:46.989Z,1.41
2019-02-16T06:52:50.794Z,1.49
2019-02-16T06:53:50.703Z,1.50
2019-02-16T06:55:54.994Z,1.49
2019-02-16T06:56:54.894Z,1.53
2019-02-16T06:58:58.692Z,1.52
2019-02-16T06:59:58.603Z,1.52
2019-02-16T07:02:02.409Z,1.52
2019-02-16T07:03:02.309Z,1.44
2019-02-16T07:05:06.117Z,1.22
2019-02-16T07:06:06.017Z,1.06
2019-02-16T07:07:58.772Z,1.12
2019-02-16T07:08:58.665Z,1.13
2019-02-16T07:11:02.947Z,1.06
2019-02-16T07:12:02.849Z,0.98
2019-02-16T07:14:06.646Z,1.20
2019-02-16T07:15:06.554Z,1.26
2019-02-16T07:17:10.847Z,1.38
2019-02-16T07:18:10.744Z,1.37
2019-02-16T07:20:15.041Z,1.52
2019-02-16T07:21:14.939Z,1.45
2019-02-16T07:23:22.485Z,1.58
2019-02-16T07:24:19.123Z,1.45
2019-02-16T07:26:23.406Z,1.55
2019-02-16T07:27:23.306Z,1.58
2019-02-16T07:29:27.128Z,1.60
2019-02-16T07:30:27.024Z,1.52
2019-02-16T07:32:31.318Z,1.59
2019-02-16T07:33:31.211Z,1.67
2019-02-16T07:35:35.507Z,1.66
2019-02-16T07:36:35.403Z,1.77
2019-02-16T07:38:28.136Z,1.76
2019-02-16T07:39:28.067Z,1.77
2019-02-16T07:41:32.332Z,1.78
2019-02-16T07:42:32.233Z,1.88
2019-02-16T07:44:36.522Z,1.91
2019-02-16T07:45:36.415Z,1.92
2019-02-16T07:47:40.729Z,1.95
2019-02-16T07:48:40.622Z,1.97
2019-02-16T07:50:44.493Z,2.02
2019-02-16T07:51:44.355Z,2.06
2019-02-16T07:53:48.158Z,2.06
2019-02-16T07:54:48.063Z,2.11
2019-02-16T07:56:51.873Z,2.08
2019-02-16T07:57:51.768Z,2.08
2019-02-16T07:59:55.566Z,2.11
2019-02-16T08:00:55.475Z,2.14
2019-02-16T08:02:59.299Z,2.26
2019-02-16T08:03:59.191Z,2.28
2019-02-16T08:06:03.060Z,2.22
2019-02-16T08:08:34.851Z,2.24
2019-02-16T08:09:34.769Z,2.25
2019-02-16T08:11:39.078Z,2.36
2019-02-16T08:12:38.981Z,2.33
2019-02-16T08:14:43.278Z,2.43
2019-02-16T08:15:43.171Z,2.43
2019-02-16T08:17:47.480Z,2.50
2019-02-16T08:18:47.395Z,2.50
2019-02-16T08:20:51.682Z,2.35
2019-02-16T08:21:51.587Z,2.36
2019-02-16T08:23:55.891Z,2.31
2019-02-16T08:24:55.788Z,2.39
2019-02-16T08:27:00.089Z,2.42
2019-02-16T08:27:59.983Z,2.35
2019-02-16T08:30:04.268Z,2.47
2019-02-16T08:31:04.182Z,2.42
2019-02-16T08:33:08.480Z,2.50
2019-02-16T08:34:08.375Z,2.49
2019-02-16T08:36:12.665Z,2.62
2019-02-16T08:37:12.572Z,2.60
2019-02-16T08:39:16.894Z,2.61
2019-02-16T08:40:16.766Z,2.62
2019-02-16T08:42:20.581Z,2.54
2019-02-16T08:43:20.478Z,2.79
2019-02-16T08:45:24.284Z,2.79
2019-02-16T08:46:24.190Z,2.72
2019-02-16T08:48:16.954Z,2.85
2019-02-16T08:49:16.853Z,2.80
2019-02-16T08:51:20.652Z,2.87
2019-02-16T08:52:20.561Z,2.93
2019-02-16T08:54:24.374Z,2.89
2019-02-16T08:55:24.274Z,2.93
2019-02-16T08:57:28.183Z,2.98
2019-02-16T08:58:28.084Z,2.90
2019-02-16T09:00:31.885Z,2.95
2019-02-16T09:01:31.840Z,3.04
2019-02-16T09:03:35.696Z,3.13
2019-02-16T09:04:35.594Z,3.11
2019-02-16T09:06:39.405Z,3.21
2019-02-16T09:07:39.314Z,3.23
2019-02-16T09:09:43.134Z,3.23
2019-02-16T09:10:43.031Z,3.26
2019-02-16T09:12:46.861Z,3.28
2019-02-16T09:13:46.759Z,3.44
2019-02-16T09:15:50.579Z,3.50
2019-02-16T09:16:50.469Z,3.56
2019-02-16T09:18:54.284Z,3.50
2019-02-16T09:19:54.178Z,3.63
2019-02-16T09:21:57.982Z,3.68
2019-02-16T09:22:57.895Z,3.65
2019-02-16T09:25:01.716Z,3.77
2019-02-16T09:26:01.603Z,3.81
2019-02-16T09:27:54.359Z,3.87
2019-02-16T09:28:54.257Z,3.92
2019-02-16T09:30:58.061Z,3.92
2019-02-16T09:31:57.967Z,3.96
2019-02-16T09:34:01.789Z,4.08
2019-02-16T09:35:01.698Z,4.14
2019-02-16T09:37:05.507Z,4.16
2019-02-16T09:38:05.407Z,4.30
2019-02-16T09:40:09.243Z,4.37
2019-02-16T09:41:09.148Z,4.34
2019-02-16T09:43:12.978Z,4.42
2019-02-16T09:44:12.881Z,4.45
2019-02-16T09:46:17.174Z,4.56
2019-02-16T09:47:17.072Z,4.63
2019-02-16T09:49:20.893Z,4.62
2019-02-16T09:50:20.784Z,4.66
2019-02-16T09:52:24.603Z,4.63
2019-02-16T09:53:24.511Z,4.67
2019-02-16T09:55:28.331Z,4.70
2019-02-16T09:56:28.231Z,4.90
2019-02-16T09:58:20.984Z,4.96
2019-02-16T09:59:20.883Z,4.94
2019-02-16T10:01:24.693Z,5.05
2019-02-16T10:02:24.602Z,5.17
2019-02-16T10:04:28.410Z,5.23
2019-02-16T10:05:28.312Z,5.28
2019-02-16T10:07:32.118Z,5.39
2019-02-16T10:08:32.025Z,5.35
2019-02-16T10:10:35.848Z,5.44
2019-02-16T10:11:35.741Z,5.41
2019-02-16T10:13:39.631Z,5.62
2019-02-16T10:14:39.468Z,5.64
2019-02-16T10:16:43.287Z,5.65
2019-02-16T10:17:43.187Z,5.79
2019-02-16T10:19:47.009Z,5.90
2019-02-16T10:20:46.907Z,5.89
2019-02-16T10:22:50.715Z,5.91
2019-02-16T10:23:50.626Z,5.94
2019-02-16T10:25:55.018Z,6.04
2019-02-16T10:26:54.343Z,6.11
2019-02-16T10:28:58.157Z,6.17
2019-02-16T10:29:58.060Z,6.28
2019-02-16T10:32:01.880Z,6.45
2019-02-16T10:33:01.788Z,6.60
2019-02-16T10:35:05.636Z,6.66
2019-02-16T10:36:05.537Z,6.82
2019-02-16T10:37:58.384Z,6.96
2019-02-16T10:38:58.295Z,6.99
2019-02-16T10:41:02.115Z,7.00
2019-02-16T10:42:02.019Z,7.02
2019-02-16T10:44:05.830Z,7.05
2019-02-16T10:45:05.741Z,7.21
2019-02-16T10:47:09.565Z,7.38
2019-02-16T10:48:09.466Z,7.53
2019-02-16T10:50:13.308Z,7.82
2019-02-16T10:51:13.215Z,8.01
2019-02-16T10:53:17.025Z,8.30
2019-02-16T10:54:16.945Z,8.49
2019-02-16T10:56:20.784Z,8.78
2019-02-16T10:57:20.680Z,9.00
2019-02-16T10:59:24.495Z,9.29
2019-02-16T11:00:24.417Z,9.47
2019-02-16T11:02:28.237Z,9.48
2019-02-16T11:03:28.141Z,9.56
2019-02-16T11:05:31.996Z,9.73
2019-02-16T11:06:31.874Z,9.76
2019-02-16T11:08:24.650Z,9.86
2019-02-16T11:09:24.549Z,10.26
2019-02-16T11:11:28.378Z,10.72
2019-02-16T11:12:28.291Z,10.68
2019-02-16T11:14:32.114Z,10.76
2019-02-16T11:15:32.022Z,10.67
2019-02-16T11:17:35.855Z,11.11
2019-02-16T11:18:35.767Z,10.96
2019-02-16T11:20:39.859Z,10.75
2019-02-16T11:21:39.497Z,10.69
2019-02-16T11:23:45.353Z,10.79
2019-02-16T11:24:43.237Z,10.82
2019-02-16T11:26:47.088Z,10.87
2019-02-16T11:27:46.985Z,10.76
2019-02-16T11:29:50.787Z,11.00
2019-02-16T11:30:50.716Z,11.02
2019-02-16T11:32:54.526Z,11.02
2019-02-16T11:33:54.437Z,11.05
2019-02-16T11:35:58.257Z,11.00
2019-02-16T11:36:58.172Z,11.10
2019-02-16T11:39:02.005Z,11.14
2019-02-16T11:40:01.914Z,11.25
2019-02-16T11:42:05.733Z,11.57
2019-02-16T11:43:05.644Z,11.60
2019-02-16T11:45:09.459Z,11.77
2019-02-16T11:46:09.404Z,11.87
2019-02-16T11:48:02.152Z,11.87
2019-02-16T11:49:02.055Z,11.88
2019-02-16T11:51:05.872Z,12.10
2019-02-16T11:52:05.794Z,12.09
2019-02-16T11:54:09.638Z,12.39
2019-02-16T11:55:09.546Z,12.42
2019-02-16T11:57:13.417Z,12.60
2019-02-16T11:58:13.309Z,12.55
2019-02-16T12:00:17.132Z,12.49
2019-02-16T12:01:17.069Z,12.55
2019-02-16T12:03:20.889Z,12.39
2019-02-16T12:04:20.809Z,12.37
2019-02-16T12:06:24.631Z,12.36
2019-02-16T12:07:24.556Z,12.39
2019-02-16T12:09:28.406Z,12.70
2019-02-16T12:10:28.321Z,12.62
2019-02-16T12:12:32.188Z,12.82
2019-02-16T12:13:32.082Z,12.85
2019-02-16T12:15:35.920Z,13.22
2019-02-16T12:16:35.847Z,13.38
2019-02-16T12:18:28.630Z,13.50
2019-02-16T12:19:28.546Z,13.63
2019-02-16T12:21:32.437Z,14.25
2019-02-16T12:22:32.368Z,14.51
2019-02-16T12:24:36.210Z,14.84
2019-02-16T12:25:36.131Z,15.00
2019-02-16T12:27:39.978Z,15.27
2019-02-16T12:28:39.893Z,15.24
2019-02-16T12:30:43.751Z,15.64
2019-02-16T12:31:43.670Z,15.72
2019-02-16T12:33:47.516Z,15.70
2019-02-16T12:34:47.439Z,15.68
2019-02-16T12:36:51.277Z,15.61
2019-02-16T12:37:51.208Z,15.47
2019-02-16T12:39:55.056Z,15.44
2019-02-16T12:40:54.972Z,15.22
2019-02-16T12:42:58.852Z,15.09
2019-02-16T12:43:58.773Z,15.11
2019-02-16T12:46:02.598Z,15.19
2019-02-16T12:47:02.520Z,15.18
2019-02-16T12:49:06.372Z,15.07
2019-02-16T12:50:06.287Z,15.06
2019-02-16T12:52:10.124Z,15.19
2019-02-16T12:53:10.052Z,15.24
2019-02-16T12:55:14.944Z,15.49
2019-02-16T12:56:13.823Z,15.49
2019-02-16T12:58:06.639Z,15.76
2019-02-16T12:59:06.532Z,15.76
2019-02-16T13:01:10.371Z,15.40
2019-02-16T13:02:10.301Z,15.36
2019-02-16T13:04:14.138Z,15.37
2019-02-16T13:05:14.072Z,15.51
2019-02-16T13:07:17.902Z,15.49
2019-02-16T13:08:17.816Z,15.44
2019-02-16T13:10:21.669Z,15.55
2019-02-16T13:11:21.575Z,15.49
2019-02-16T13:13:25.432Z,15.62
2019-02-16T13:14:25.337Z,15.64
2019-02-16T13:16:29.169Z,15.59
2019-02-16T13:17:29.089Z,15.52
2019-02-16T13:19:32.920Z,15.54
2019-02-16T13:20:32.835Z,15.55
2019-02-16T13:22:36.662Z,15.65
2019-02-16T13:23:36.587Z,15.65
2019-02-16T13:25:40.411Z,15.58
2019-02-16T13:26:40.329Z,15.55
2019-02-16T13:28:33.093Z,15.47
2019-02-16T13:29:33.019Z,15.43
2019-02-16T13:31:36.854Z,15.27
2019-02-16T13:32:36.769Z,15.40
2019-02-16T13:34:40.607Z,15.21
2019-02-16T13:35:40.519Z,15.24
2019-02-16T13:37:44.350Z,15.19
2019-02-16T13:38:44.272Z,15.24
2019-02-16T13:40:48.114Z,15.21
2019-02-16T13:41:48.028Z,15.18
2019-02-16T13:43:51.888Z,15.19
2019-02-16T13:44:51.787Z,15.14
2019-02-16T13:46:55.598Z,15.06
2019-02-16T13:47:55.525Z,15.09
2019-02-16T13:49:59.367Z,15.22
2019-02-16T13:50:59.281Z,15.39
2019-02-16T13:53:03.095Z,15.33
2019-02-16T13:54:03.019Z,15.35
2019-02-16T13:56:06.856Z,15.37
2019-02-16T13:57:06.767Z,15.27
2019-02-16T13:59:10.602Z,15.40
2019-02-16T14:00:10.515Z,15.49
2019-02-16T14:02:14.335Z,15.49
2019-02-16T14:03:14.266Z,15.49
2019-02-16T14:05:18.090Z,15.46
2019-02-16T14:06:18.008Z,15.40
2019-02-16T14:08:10.777Z,15.47
2019-02-16T14:09:10.692Z,15.51
2019-02-16T14:11:14.564Z,15.31
2019-02-16T14:12:14.447Z,15.15
2019-02-16T14:14:18.313Z,15.11
2019-02-16T14:15:18.191Z,15.14
2019-02-16T14:17:22.019Z,15.09
2019-02-16T14:18:21.941Z,15.15
2019-02-16T14:20:25.785Z,15.22
2019-02-16T14:21:25.698Z,15.24
2019-02-16T14:23:29.522Z,15.27
2019-02-16T14:24:29.442Z,15.27
2019-02-16T14:26:33.278Z,15.31
2019-02-16T14:27:33.197Z,15.35
2019-02-16T14:29:37.052Z,15.11
2019-02-16T14:30:36.966Z,15.10
2019-02-16T14:32:40.809Z,15.11
2019-02-16T14:33:40.719Z,15.22
2019-02-16T14:35:44.557Z,15.24
2019-02-16T14:36:44.469Z,15.27
2019-02-16T14:38:37.229Z,15.36
2019-02-16T14:39:38.657Z,15.33
2019-02-16T14:41:40.994Z,15.39
2019-02-16T14:42:40.909Z,15.40
2019-02-16T14:44:44.718Z,15.47
2019-02-16T14:45:44.644Z,15.72
2019-02-16T14:47:48.488Z,15.95
2019-02-16T14:48:49.967Z,16.20
2019-02-16T14:50:52.247Z,16.35
2019-02-16T14:51:52.153Z,16.38
2019-02-16T14:53:55.992Z,16.51
2019-02-16T14:54:55.908Z,16.60
2019-02-16T14:56:59.753Z,16.47
2019-02-16T14:57:59.658Z,16.42
2019-02-16T15:00:03.480Z,16.31
2019-02-16T15:01:03.410Z,16.16
2019-02-16T15:03:07.250Z,16.02
2019-02-16T15:04:07.156Z,16.00
2019-02-16T15:06:11.037Z,15.97
2019-02-16T15:07:11.045Z,15.92
2019-02-16T15:09:14.982Z,16.12
2019-02-16T15:10:14.906Z,16.21
2019-02-16T15:12:18.758Z,16.54
2019-02-16T15:13:18.675Z,16.53
2019-02-16T15:15:22.508Z,16.61
2019-02-16T15:16:22.426Z,16.64
2019-02-16T15:18:15.210Z,16.61
2019-02-16T15:19:15.122Z,16.71
2019-02-16T15:21:18.964Z,16.68
2019-02-16T15:22:18.882Z,16.60
2019-02-16T15:24:22.695Z,16.33
2019-02-16T15:25:22.622Z,16.17
2019-02-16T15:27:26.459Z,15.92
2019-02-16T15:28:26.372Z,15.64
2019-02-16T15:30:30.187Z,15.62
2019-02-16T15:31:30.110Z,15.64
2019-02-16T15:33:33.960Z,15.46
2019-02-16T15:34:33.872Z,15.25
2019-02-16T15:36:37.701Z,15.35
2019-02-16T15:37:37.617Z,15.18
2019-02-16T15:39:41.446Z,14.85
2019-02-16T15:40:41.369Z,14.70
2019-02-16T15:42:45.198Z,14.17
2019-02-16T15:43:45.112Z,14.04
2019-02-16T15:45:48.939Z,13.68
2019-02-16T15:46:48.863Z,13.49
2019-02-16T15:48:52.697Z,13.30
2019-02-16T15:49:52.608Z,13.11
2019-02-16T15:51:56.452Z,12.98
2019-02-16T15:52:56.359Z,12.85
2019-02-16T15:55:00.327Z,12.65
2019-02-16T15:56:00.102Z,12.62
2019-02-16T15:57:52.901Z,12.42
2019-02-16T15:58:52.832Z,12.37
2019-02-16T16:00:56.664Z,12.21
2019-02-16T16:01:56.590Z,12.13
2019-02-16T16:04:00.378Z,12.03
2019-02-16T16:05:00.323Z,12.09
2019-02-16T16:07:04.121Z,12.03
2019-02-16T16:08:04.030Z,11.87
2019-02-16T16:10:07.889Z,11.72
2019-02-16T16:11:07.807Z,11.62
2019-02-16T16:13:11.625Z,11.52
2019-02-16T16:14:11.535Z,11.45
2019-02-16T16:16:15.380Z,11.30
2019-02-16T16:17:15.259Z,11.41
2019-02-16T16:19:19.080Z,11.22
2019-02-16T16:20:18.993Z,11.23
2019-02-16T16:22:22.834Z,11.22
2019-02-16T16:23:22.736Z,11.23
2019-02-16T16:25:26.558Z,11.22
2019-02-16T16:26:26.470Z,11.10
2019-02-16T16:28:19.242Z,11.10
2019-02-16T16:29:19.153Z,11.14
2019-02-16T16:30:19.076Z,11.05
2019-02-16T16:31:19.017Z,11.00
2019-02-16T16:32:18.912Z,10.92
2019-02-16T16:33:18.833Z,11.00
2019-02-16T16:34:18.754Z,10.97
2019-02-16T16:35:18.676Z,10.81
2019-02-16T16:36:18.609Z,10.84
2019-02-16T16:37:18.513Z,10.84
2019-02-16T16:38:18.435Z,10.82
2019-02-16T16:39:18.355Z,10.81
2019-02-16T16:40:18.279Z,10.69